Time;durP1;ratioP1;P1;durP2;ratioP2;P2;SDS_P1;SDS_P2;PMS_P1;PMS_P2;Temp;Humidity;BMP_temperature;BMP_pressure;BME280_temperature;BME280_humidity;BME280_pressure;Samples;Min_cycle;Max_cycle;Signal;HPM_P1;HPM_P2
2022/02/05 00:01:17;;;;;;;3.88;3.47;;;7.50;74.60;;;6.30;60.08;94436.44;6107491;23;20192;-92
2022/02/05 00:03:49;;;;;;;5.43;3.65;;;7.40;74.60;;;6.28;60.35;94429.78;6132228;23;20205;-92
2022/02/05 00:06:21;;;;;;;4.40;3.80;;;7.40;74.60;;;6.28;60.41;94429.78;6107277;23;20170;-91
2022/02/05 00:09:08;;;;;;;5.40;3.70;;;7.40;74.60;;;6.15;60.49;94423.41;6106065;23;20189;-92
2022/02/05 00:42:27;;;;;;;3.70;3.25;;;7.20;75.40;;;6.01;61.70;94418.97;6105434;23;20581;-92
2022/02/05 00:44:56;;;;;;;4.50;3.10;;;7.10;75.50;;;6.01;61.92;94413.75;6086038;23;20198;-92
2022/02/05 00:47:25;;;;;;;3.88;2.80;;;7.20;75.80;;;6.09;61.36;94409.28;6105423;23;20177;-93
2022/02/05 00:49:58;;;;;;;3.63;3.00;;;7.10;75.60;;;6.05;61.81;94408.03;6081957;23;20197;-91
2022/02/05 00:52:27;;;;;;;3.88;2.88;;;7.10;75.80;;;6.17;61.52;94418.00;6106293;23;20170;-92
2022/02/05 00:55:03;;;;;;;3.10;2.80;;;7.10;75.80;;;6.12;61.66;94396.91;6105439;23;20205;-92
2022/02/05 01:00:00;;;;;;;3.03;2.67;;;7.20;76.10;;;6.31;61.69;94414.63;6105685;23;20200;-91
2022/02/05 01:02:28;;;;;;;2.67;2.38;;;7.20;76.00;;;6.35;61.55;94439.31;6105559;23;20209;-91
2022/02/05 01:04:56;;;;;;;3.47;2.78;;;7.20;76.10;;;6.34;61.75;94421.25;6154034;23;20255;-93
2022/02/05 01:07:23;;;;;;;3.60;2.88;;;7.30;76.30;;;6.43;61.47;94438.41;6081022;23;20201;-92
2022/02/05 01:09:53;;;;;;;3.05;2.72;;;7.30;76.30;;;6.45;61.73;94407.78;6129471;23;20201;-91
2022/02/05 01:12:24;;;;;;;3.63;2.75;;;7.30;76.30;;;6.57;61.64;94429.81;6129889;23;20180;-90
2022/02/05 01:14:55;;;;;;;3.42;2.70;;;7.30;76.30;;;6.61;61.53;94414.63;6105312;23;20296;-89
2022/02/05 01:17:32;;;;;;;3.05;2.50;;;7.40;76.30;;;6.64;61.41;94429.09;6082358;23;20189;-91
2022/02/05 01:22:40;;;;;;;3.10;2.72;;;7.50;76.20;;;6.73;61.37;94417.59;6129686;23;20670;-91
2022/02/05 01:25:10;;;;;;;3.85;2.85;;;7.50;76.20;;;6.75;61.11;94417.41;6153910;23;20213;-91
2022/02/05 01:27:45;;;;;;;2.70;2.38;;;7.60;76.20;;;6.82;61.41;94426.97;6130092;23;20185;-91
2022/02/05 01:32:53;;;;;;;3.60;2.90;;;7.60;76.00;;;6.79;61.06;94432.53;6129964;23;20182;-91
2022/02/05 01:36:00;;;;;;;4.07;3.08;;;7.70;76.00;;;6.72;61.32;94410.78;6106883;23;20652;-92
2022/02/05 01:57:52;;;;;;;2.72;2.42;;;7.70;76.10;;;6.74;61.58;94434.88;6110548;23;20173;-90
2022/02/05 02:06:26;;;;;;;2.58;1.92;;;7.70;76.00;;;6.70;61.67;94420.56;6135673;23;20391;-90
2022/02/05 02:19:44;;;;;;;2.60;2.20;;;7.70;75.80;;;6.51;61.84;94443.56;6131870;23;20735;-91
2022/02/05 02:22:25;;;;;;;2.65;2.40;;;7.60;75.80;;;6.51;61.96;94461.00;6130132;23;20201;-91
2022/02/05 02:27:36;;;;;;;2.50;2.30;;;7.60;76.10;;;6.56;61.97;94492.53;6130739;23;20197;-90
2022/02/05 02:30:17;;;;;;;2.40;2.20;;;7.60;76.30;;;6.57;62.07;94481.94;6155210;23;20204;-91
2022/02/05 02:32:50;;;;;;;3.17;2.47;;;7.60;76.40;;;6.61;62.91;94505.84;6155448;23;20177;-91
2022/02/05 02:35:24;;;;;;;3.17;2.35;;;7.60;76.90;;;6.57;62.77;94525.44;6108500;23;20208;-91
2022/02/05 02:37:58;;;;;;;2.33;2.13;;;7.50;76.60;;;6.48;63.13;94526.47;6131579;23;20174;-93
2022/02/05 02:43:24;;;;;;;1.70;1.60;;;7.50;76.80;;;6.23;63.44;94509.25;6129193;23;20177;-93
2022/02/05 02:45:52;;;;;;;1.80;1.70;;;7.50;76.70;;;6.11;63.25;94525.47;6108099;23;20201;-92
2022/02/05 02:48:21;;;;;;;1.50;1.40;;;7.30;76.70;;;5.99;63.48;94519.84;6130316;23;20193;-91
2022/02/05 02:59:06;;;;;;;2.05;1.92;;;7.10;76.50;;;5.69;63.18;94515.28;6154342;23;20697;-90
2022/02/05 03:01:37;;;;;;;1.40;1.30;;;7.00;76.40;;;5.68;63.03;94523.25;6106974;23;20198;-93
2022/02/05 03:04:04;;;;;;;1.70;1.30;;;6.90;76.40;;;5.65;62.87;94529.63;6107296;23;20271;-94
2022/02/05 03:06:32;;;;;;;1.30;1.20;;;6.90;76.40;;;5.60;62.65;94531.91;6154939;23;20177;-92
2022/02/05 03:09:00;;;;;;;1.30;1.20;;;6.80;76.20;;;5.60;62.14;94537.09;6130627;23;20284;-92
2022/02/05 03:11:29;;;;;;;2.05;1.20;;;6.80;76.00;;;5.58;62.16;94539.88;6131077;23;20181;-92
2022/02/05 03:13:57;;;;;;;1.40;1.30;;;6.70;75.90;;;5.57;61.55;94547.84;6106474;23;20225;-92
2022/02/05 03:16:28;;;;;;;1.10;1.10;;;6.70;75.80;;;5.49;61.45;94560.91;6130754;23;20189;-92
2022/02/05 03:21:24;;;;;;;1.42;1.33;;;6.60;75.70;;;5.54;61.10;94577.63;6131275;23;20201;-92
2022/02/05 03:23:53;;;;;;;1.40;1.10;;;6.60;75.60;;;5.51;61.00;94569.34;6130495;23;20170;-93
2022/02/05 03:26:21;;;;;;;1.30;1.20;;;6.50;75.60;;;5.54;61.36;94579.41;6130546;23;20209;-92
2022/02/05 03:28:49;;;;;;;1.23;1.13;;;6.50;75.60;;;5.51;61.29;94566.75;6106207;23;20178;-94
2022/02/05 03:31:16;;;;;;;1.20;1.10;;;6.60;75.70;;;5.48;61.21;94591.31;6082826;23;20668;-88
2022/02/05 03:33:44;;;;;;;1.33;1.23;;;6.60;75.60;;;5.52;61.11;94599.59;6082452;23;20178;-95
2022/02/05 03:36:12;;;;;;;1.23;1.15;;;6.50;75.60;;;5.55;60.96;94605.25;6130243;23;20185;-93
2022/02/05 03:38:40;;;;;;;1.20;1.10;;;6.60;75.90;;;5.54;60.91;94611.44;6104934;23;20181;-93
2022/02/05 03:41:08;;;;;;;0.95;0.93;;;6.60;75.70;;;5.61;61.21;94629.78;6106248;23;20177;-94
2022/02/05 03:43:38;;;;;;;1.20;1.10;;;6.60;75.70;;;5.64;60.93;94657.25;6130625;23;20256;-92
2022/02/05 03:46:06;;;;;;;1.02;1.00;;;6.60;75.60;;;5.52;61.29;94649.81;6106567;23;20192;-93
2022/02/05 03:48:34;;;;;;;1.10;1.10;;;6.70;75.80;;;5.51;61.42;94647.38;6130416;23;20609;-93
2022/02/05 03:51:02;;;;;;;1.00;1.00;;;6.60;75.70;;;5.44;61.58;94650.66;6130677;23;20596;-92
2022/02/05 03:53:30;;;;;;;1.02;1.02;;;6.60;75.80;;;5.41;61.33;94660.56;6081794;23;20173;-95
2022/02/05 03:55:59;;;;;;;1.15;1.05;;;6.50;76.50;;;5.34;61.64;94668.22;6129403;23;20648;-93
2022/02/05 03:58:26;;;;;;;0.90;0.90;;;6.50;75.70;;;5.35;61.37;94692.44;6106589;23;20174;-93
2022/02/05 04:00:54;;;;;;;1.02;0.98;;;6.50;75.70;;;5.16;61.61;94686.59;6082358;23;20740;-93
2022/02/05 04:03:22;;;;;;;1.00;1.00;;;6.40;75.60;;;5.16;61.56;94694.41;6105735;23;20200;-92
2022/02/05 04:05:50;;;;;;;1.30;1.20;;;6.30;75.60;;;5.13;61.28;94708.53;6082143;23;20203;-95
2022/02/05 04:08:18;;;;;;;0.80;0.80;;;6.30;75.60;;;5.12;61.17;94721.72;6130306;23;20188;-93
2022/02/05 04:10:51;;;;;;;1.95;1.10;;;6.30;75.50;;;5.08;61.01;94716.03;6106502;23;20256;-92
2022/02/05 04:16:20;;;;;;;1.00;1.00;;;6.20;75.20;;;4.99;60.59;94735.16;6109881;23;20181;-93
2022/02/05 04:18:56;;;;;;;2.30;1.13;;;6.20;75.20;;;4.91;60.60;94730.00;6130972;23;20181;-92
2022/02/05 04:21:24;;;;;;;1.20;1.10;;;6.10;75.00;;;4.84;60.36;94734.22;6106025;23;20201;-91
2022/02/05 04:23:52;;;;;;;1.10;1.00;;;6.00;75.00;;;4.76;60.27;94728.03;6129730;23;20613;-94
2022/02/05 04:26:21;;;;;;;1.00;1.00;;;6.00;75.00;;;4.82;60.36;94749.94;6129624;23;20177;-91
2022/02/05 04:28:49;;;;;;;1.95;1.00;;;5.90;74.90;;;4.69;60.24;94737.44;6154792;23;20633;-94
2022/02/05 04:31:17;;;;;;;1.10;1.10;;;5.90;74.80;;;4.66;60.58;94735.13;6154253;23;20181;-93
2022/02/05 04:33:47;;;;;;;1.00;1.00;;;5.90;75.00;;;4.62;60.31;94742.44;6106170;23;20182;-94
2022/02/05 04:36:16;;;;;;;1.10;1.10;;;5.80;74.80;;;4.65;60.60;94764.66;6129703;23;20177;-94
2022/02/05 04:38:47;;;;;;;1.38;1.10;;;5.80;74.80;;;4.57;60.40;94773.28;6154177;23;20293;-94
2022/02/05 04:41:24;;;;;;;0.95;0.93;;;5.70;74.90;;;4.48;60.79;94769.03;6105774;23;20628;-92
2022/02/05 04:47:00;;;;;;;1.20;1.10;;;5.70;74.90;;;4.46;60.43;94782.16;6133356;23;20177;-92
2022/02/05 04:55:12;;;;;;;1.25;1.10;;;5.60;75.00;;;4.31;60.69;94805.31;6134212;23;20221;-94
2022/02/05 05:08:53;;;;;;;1.20;1.10;;;5.50;75.00;;;4.39;60.24;94847.88;6129334;23;20173;-93
2022/02/05 05:19:26;;;;;;;1.08;1.08;;;5.40;74.80;;;4.19;60.62;94870.63;6134147;23;20198;-89
2022/02/05 05:22:01;;;;;;;0.95;0.90;;;5.40;74.70;;;4.12;60.63;94873.84;6104551;23;20244;-92
2022/02/05 05:24:30;;;;;;;1.15;1.15;;;5.30;74.70;;;4.01;60.19;94868.91;6129258;23;20284;-91
2022/02/05 05:26:58;;;;;;;1.00;1.00;;;5.30;74.60;;;3.95;60.65;94879.91;6104879;23;20205;-91
2022/02/05 05:29:26;;;;;;;1.88;1.20;;;5.20;74.60;;;3.85;60.90;94883.38;6130147;23;20303;-92
2022/02/05 05:31:55;;;;;;;1.45;1.17;;;5.20;74.60;;;3.81;60.66;94881.28;6082511;23;20173;-92
2022/02/05 05:34:23;;;;;;;1.10;1.10;;;5.10;74.60;;;3.75;60.62;94887.03;6105473;23;20197;-92
2022/02/05 05:36:53;;;;;;;1.23;1.17;;;5.10;74.60;;;3.72;60.84;94905.50;6130223;23;20177;-91
2022/02/05 05:39:21;;;;;;;1.13;1.00;;;5.00;74.70;;;3.73;61.19;94917.50;6105734;23;20193;-90
2022/02/05 05:41:49;;;;;;;1.10;1.10;;;5.00;74.90;;;3.67;61.31;94919.75;6129790;23;20221;-90
2022/02/05 05:44:56;;;;;;;1.42;1.33;;;4.90;75.00;;;3.68;61.73;94921.34;6104691;23;20225;-91
2022/02/05 05:50:09;;;;;;;1.23;1.10;;;4.90;75.20;;;3.74;61.27;94942.50;6106308;23;20193;-92
2022/02/05 05:52:38;;;;;;;1.20;1.10;;;4.90;75.30;;;3.84;61.30;94957.03;6132124;23;20256;-93
2022/02/05 05:55:06;;;;;;;1.13;1.10;;;4.90;75.40;;;3.84;61.28;94963.97;6104983;23;20197;-91
2022/02/05 05:57:35;;;;;;;1.40;1.30;;;4.90;75.40;;;3.83;61.50;94952.78;6104798;23;20182;-92
2022/02/05 06:00:03;;;;;;;1.10;1.10;;;4.90;75.40;;;3.88;61.58;94974.88;6129985;23;20189;-91
2022/02/05 06:02:32;;;;;;;1.15;1.05;;;4.90;75.30;;;3.77;61.46;94966.38;6130165;23;20275;-92
2022/02/05 06:05:00;;;;;;;1.40;1.30;;;4.90;75.30;;;3.77;61.37;94968.13;6105319;23;20198;-89
2022/02/05 06:07:27;;;;;;;1.50;1.20;;;4.90;75.30;;;3.85;61.07;94999.34;6129596;23;20201;-92
2022/02/05 06:09:55;;;;;;;1.50;1.40;;;5.00;75.40;;;3.84;60.97;94982.97;6130098;23;20213;-91
2022/02/05 06:12:23;;;;;;;3.60;1.35;;;5.00;75.40;;;3.89;61.00;94987.69;6104544;23;20264;-90
2022/02/05 06:14:51;;;;;;;1.50;1.40;;;4.90;75.20;;;3.95;60.79;95000.06;6104867;23;20309;-91
2022/02/05 06:17:24;;;;;;;1.52;1.42;;;4.90;75.20;;;3.93;60.65;94998.59;6081462;23;20561;-90
2022/02/05 06:19:54;;;;;;;1.33;1.27;;;5.00;75.20;;;3.88;60.86;94990.44;6130149;23;20198;-94
2022/02/05 06:22:26;;;;;;;1.83;1.30;;;5.00;75.10;;;3.99;60.85;95008.38;6129396;23;20217;-90
2022/02/05 06:24:56;;;;;;;1.50;1.40;;;5.00;75.10;;;4.01;60.39;95020.22;6105710;23;20229;-89
2022/02/05 06:27:24;;;;;;;1.50;1.40;;;5.00;75.00;;;4.03;60.40;95019.28;6081091;23;20181;-92
2022/02/05 06:29:52;;;;;;;1.30;1.20;;;5.00;75.00;;;4.03;60.42;95027.06;6104938;23;20201;-91
2022/02/05 06:32:21;;;;;;;1.23;1.13;;;5.00;75.00;;;4.04;60.48;95031.28;6104204;23;20181;-89
2022/02/05 06:34:48;;;;;;;1.20;1.20;;;5.00;75.00;;;4.01;60.17;95027.22;6153743;23;20202;-91
2022/02/05 06:37:18;;;;;;;1.50;1.40;;;5.10;75.00;;;4.04;60.08;95033.88;6131028;23;20181;-90
2022/02/05 06:39:46;;;;;;;1.40;1.30;;;5.10;75.00;;;4.14;60.08;95043.25;6083514;23;20193;-90
2022/02/05 06:42:13;;;;;;;1.48;1.38;;;5.10;74.80;;;4.10;59.39;95033.28;6106372;23;20223;-93
2022/02/05 06:44:41;;;;;;;1.50;1.40;;;5.10;74.70;;;4.18;59.32;95035.97;6131005;23;20197;-92
2022/02/05 06:47:08;;;;;;;2.95;1.40;;;5.10;74.60;;;4.19;59.36;95041.97;6107102;23;20205;-93
2022/02/05 06:49:37;;;;;;;2.03;1.48;;;5.20;74.50;;;4.24;58.85;95045.75;6154887;23;20563;-92
2022/02/05 06:52:07;;;;;;;1.50;1.40;;;5.20;74.30;;;4.26;58.61;95045.59;6106401;23;20205;-90
2022/02/05 06:54:35;;;;;;;1.52;1.40;;;5.20;74.30;;;4.28;58.43;95052.28;6131657;23;20272;-91
2022/02/05 06:57:04;;;;;;;1.90;1.48;;;5.20;74.20;;;4.26;58.55;95045.59;6105104;23;20178;-92
2022/02/05 06:59:31;;;;;;;1.55;1.30;;;5.20;74.00;;;4.28;58.68;95046.28;6104961;23;20197;-91
2022/02/05 07:02:00;;;;;;;1.27;1.17;;;5.30;74.20;;;4.29;58.71;95056.50;6081101;23;20244;-91
2022/02/05 07:04:28;;;;;;;2.38;1.50;;;5.20;74.10;;;4.34;58.57;95063.84;6128867;23;20205;-92
2022/02/05 07:06:57;;;;;;;2.70;1.40;;;5.30;74.00;;;4.28;57.77;95057.47;6082156;23;20182;-93
2022/02/05 07:09:27;;;;;;;2.22;1.60;;;5.40;73.70;;;4.25;58.34;95055.19;6105716;23;20244;-92
2022/02/05 07:11:58;;;;;;;1.63;1.52;;;5.30;74.50;;;4.26;58.36;95072.41;6128633;23;20169;-93
2022/02/05 07:14:32;;;;;;;2.22;1.52;;;5.30;73.60;;;4.24;58.57;95070.91;6128353;23;20209;-92
2022/02/05 07:17:08;;;;;;;3.40;1.40;;;5.30;73.70;;;4.22;58.49;95065.84;6128354;23;20177;-92
2022/02/05 07:22:27;;;;;;;1.92;1.30;;;5.30;73.80;;;4.33;57.87;95085.59;6107503;23;20267;-93
2022/02/05 07:30:17;;;;;;;1.50;1.40;;;5.40;73.50;;;4.31;58.54;95084.94;6129288;23;20205;-91
2022/02/05 07:32:55;;;;;;;1.95;1.30;;;5.40;73.70;;;4.33;58.46;95080.38;6150383;23;20178;-91
2022/02/05 07:35:24;;;;;;;1.42;1.33;;;5.40;73.50;;;4.33;58.31;95095.97;6129208;23;20263;-93
2022/02/05 07:37:55;;;;;;;2.58;1.63;;;5.40;73.50;;;4.26;58.42;95094.94;6153064;23;20177;-92
2022/02/05 07:40:24;;;;;;;1.50;1.38;;;5.40;73.30;;;4.21;58.35;95097.16;6104821;23;20197;-92
2022/02/05 07:42:56;;;;;;;3.83;1.60;;;5.40;73.50;;;4.17;58.24;95091.44;6128019;23;20220;-92
2022/02/05 07:45:25;;;;;;;2.55;1.70;;;5.40;73.40;;;4.25;58.27;95101.09;6102582;23;20197;-89
2022/02/05 07:47:53;;;;;;;1.50;1.40;;;5.30;73.40;;;4.22;58.44;95097.00;6103617;23;20181;-89
2022/02/05 07:50:22;;;;;;;2.97;1.80;;;5.30;73.60;;;4.20;58.45;95111.09;6127686;23;20208;-92
2022/02/05 07:52:50;;;;;;;2.92;1.85;;;5.30;73.50;;;4.20;58.14;95114.53;6103593;23;20177;-92
2022/02/05 07:55:28;;;;;;;1.98;1.50;;;5.30;73.40;;;4.24;58.35;95112.44;6105466;23;20201;-93
2022/02/05 07:57:58;;;;;;;2.55;1.70;;;5.30;73.60;;;4.22;58.33;95102.19;6103881;23;20182;-90
2022/02/05 08:00:26;;;;;;;2.35;1.55;;;5.30;73.60;;;4.26;58.31;95118.28;6128395;23;20589;-88
2022/02/05 08:02:57;;;;;;;1.77;1.63;;;5.30;73.70;;;4.37;58.62;95123.28;6103270;23;20213;-91
2022/02/05 08:05:25;;;;;;;2.25;1.80;;;5.40;73.70;;;4.32;58.01;95128.09;6105369;23;20280;-89
2022/02/05 08:07:57;;;;;;;3.00;1.73;;;5.40;73.60;;;4.38;57.79;95124.09;6104484;23;20173;-91
2022/02/05 08:10:31;;;;;;;2.03;1.80;;;5.40;73.70;;;4.42;58.06;95138.41;6105581;23;20204;-91
2022/02/05 08:13:00;;;;;;;2.88;1.90;;;5.40;73.60;;;4.54;57.99;95136.41;6130186;23;20181;-91
2022/02/05 08:15:33;;;;;;;3.53;1.73;;;5.50;73.60;;;4.57;57.77;95139.53;6083279;23;20216;-90
2022/02/05 08:18:01;;;;;;;1.67;1.50;;;5.50;73.60;;;4.63;57.89;95130.34;6105449;23;20213;-90
2022/02/05 08:20:29;;;;;;;2.75;1.98;;;5.50;73.60;;;4.67;56.85;95136.03;6153963;23;20202;-91
2022/02/05 08:23:00;;;;;;;2.40;1.70;;;5.60;73.30;;;4.80;57.43;95152.06;6106785;23;20628;-90
2022/02/05 08:25:27;;;;;;;2.33;1.70;;;5.60;73.40;;;4.80;56.82;95139.06;6130306;23;20197;-92
2022/02/05 08:27:55;;;;;;;1.70;1.60;;;5.70;73.00;;;4.88;57.03;95141.75;6128967;23;20181;-90
2022/02/05 08:30:23;;;;;;;2.22;1.98;;;5.70;73.00;;;4.90;56.90;95141.59;6130124;23;20190;-90
2022/02/05 08:32:50;;;;;;;2.20;1.80;;;5.70;72.90;;;5.01;56.87;95146.53;6129404;23;20200;-88
2022/02/05 08:35:19;;;;;;;2.03;1.70;;;5.80;73.80;;;5.07;56.55;95148.53;6105389;23;20204;-91
2022/02/05 08:37:48;;;;;;;2.55;2.13;;;5.80;72.90;;;5.07;56.07;95151.13;6129837;23;20182;-90
2022/02/05 08:40:16;;;;;;;2.55;1.90;;;5.90;73.00;;;5.15;55.81;95154.75;6153556;23;20193;-90
2022/02/05 08:42:44;;;;;;;2.17;1.63;;;5.90;73.00;;;5.20;55.53;95162.91;6153654;23;20194;-88
2022/02/05 08:45:13;;;;;;;4.43;1.92;;;6.00;73.00;;;5.23;55.72;95149.63;6105826;23;20200;-89
2022/02/05 08:47:41;;;;;;;2.40;1.88;;;6.10;73.10;;;5.33;55.96;95159.91;6105757;23;20181;-90
2022/02/05 08:50:11;;;;;;;4.15;1.90;;;6.10;72.90;;;5.36;55.18;95159.59;6082526;23;20205;-89
2022/02/05 08:52:40;;;;;;;2.10;1.90;;;6.10;72.50;;;5.36;54.96;95160.44;6105137;23;20185;-90
2022/02/05 08:55:09;;;;;;;3.22;2.10;;;6.20;72.20;;;5.37;53.93;95161.25;6153920;23;20220;-89
2022/02/05 08:57:39;;;;;;;4.28;1.95;;;6.20;71.50;;;5.41;52.54;95173.78;6081343;23;20260;-89
2022/02/05 09:00:13;;;;;;;2.55;1.83;;;6.30;71.10;;;5.41;53.85;95168.59;6105309;23;20208;-92
2022/02/05 09:02:56;;;;;;;2.58;1.63;;;6.30;71.20;;;5.46;53.07;95186.34;6106252;23;20201;-91
2022/02/05 09:05:47;;;;;;;1.77;1.52;;;6.30;70.90;;;5.42;52.95;95174.59;6154186;23;20193;-91
2022/02/05 09:08:40;;;;;;;2.00;1.70;;;6.30;70.90;;;5.55;53.94;95172.41;6153115;23;20176;-91
2022/02/05 09:11:31;;;;;;;2.08;1.70;;;6.40;71.30;;;5.59;54.64;95160.72;6129674;23;20256;-90
2022/02/05 09:16:28;;;;;;;1.70;1.50;;;6.40;71.60;;;5.80;54.75;95158.69;6129700;23;20181;-90
2022/02/05 09:18:56;;;;;;;1.73;1.63;;;6.50;72.00;;;5.89;54.51;95161.19;6128873;23;20178;-90
2022/02/05 09:21:29;;;;;;;1.98;1.75;;;6.60;71.90;;;5.99;53.15;95165.47;6129291;23;20692;-88
2022/02/05 09:24:01;;;;;;;2.55;1.77;;;6.60;71.30;;;6.06;53.02;95154.28;6129500;23;20288;-90
2022/02/05 09:26:31;;;;;;;2.40;1.80;;;6.70;71.20;;;6.12;52.34;95152.03;6129761;23;20208;-90
2022/02/05 09:29:03;;;;;;;1.90;1.50;;;6.80;71.00;;;6.22;51.71;95169.13;6105204;23;20204;-90
2022/02/05 09:31:34;;;;;;;2.08;1.70;;;6.90;70.40;;;6.20;52.51;95165.91;6153874;23;20252;-91
2022/02/05 09:34:12;;;;;;;1.90;1.70;;;6.90;70.90;;;6.23;51.99;95168.16;6106936;23;20199;-89
2022/02/05 09:36:41;;;;;;;1.80;1.70;;;6.90;70.40;;;6.25;52.08;95168.84;6129604;23;20177;-90
2022/02/05 09:39:11;;;;;;;2.28;1.80;;;7.00;70.40;;;6.29;50.23;95171.13;6105115;23;20726;-91
2022/02/05 09:42:01;;;;;;;2.50;1.70;;;7.00;69.20;;;6.31;50.99;95170.00;6129437;23;20672;-90
2022/02/05 09:44:30;;;;;;;3.13;2.03;;;7.00;69.50;;;6.31;48.47;95184.78;6153589;23;20219;-90
2022/02/05 09:46:58;;;;;;;4.68;1.92;;;7.10;68.20;;;6.31;48.52;95174.38;6154258;23;20280;-90
2022/02/05 09:49:27;;;;;;;3.72;1.95;;;7.10;68.00;;;6.35;48.51;95178.31;6104110;23;20285;-90
2022/02/05 09:52:07;;;;;;;2.53;1.70;;;7.10;68.10;;;6.35;49.31;95166.09;6105364;23;20173;-90
2022/02/05 09:54:39;;;;;;;3.65;1.90;;;7.10;68.50;;;6.40;47.66;95181.25;6129260;23;20201;-91
2022/02/05 09:57:07;;;;;;;2.03;1.77;;;7.10;67.50;;;6.26;47.99;95174.84;6129365;23;20480;-90
2022/02/05 09:59:57;;;;;;;3.55;1.90;;;7.10;67.20;;;6.28;49.21;95192.94;6153375;23;20201;-90
2022/02/05 10:02:31;;;;;;;2.95;1.77;;;7.10;68.10;;;6.19;49.42;95194.69;6129956;23;20180;-92
2022/02/05 10:05:22;;;;;;;3.50;2.20;;;7.10;68.80;;;6.09;48.66;95187.00;6154213;23;20288;-91
2022/02/05 10:08:00;;;;;;;2.97;2.10;;;7.00;67.60;;;6.06;49.39;95201.16;6129235;23;20169;-89
2022/02/05 10:10:51;;;;;;;4.22;2.22;;;7.10;67.80;;;5.94;49.92;95191.94;6128297;23;20193;-91
2022/02/05 10:13:20;;;;;;;4.15;2.20;;;7.00;68.10;;;5.97;49.49;95196.03;6130434;23;20173;-89
2022/02/05 10:15:54;;;;;;;3.55;1.98;;;7.00;67.90;;;5.94;50.42;95191.94;6106778;23;20197;-88
2022/02/05 10:18:26;;;;;;;4.97;2.38;;;7.00;68.20;;;5.96;50.23;95210.00;6154948;23;20177;-89
2022/02/05 10:21:00;;;;;;;2.92;2.00;;;6.90;68.20;;;5.87;50.27;95196.16;6106910;23;20277;-89
2022/02/05 10:23:30;;;;;;;3.08;2.20;;;6.90;68.20;;;5.88;50.80;95206.44;6106827;23;20197;-89
2022/02/05 10:25:58;;;;;;;2.75;2.15;;;6.80;68.40;;;5.91;50.03;95219.13;6106535;23;20217;-90
2022/02/05 10:28:26;;;;;;;2.63;2.20;;;6.80;68.10;;;5.89;50.94;95220.25;6129737;23;20560;-89
2022/02/05 10:30:55;;;;;;;3.05;2.38;;;6.80;68.40;;;5.86;50.66;95197.13;6106277;23;20193;-89
2022/02/05 10:33:33;;;;;;;3.58;2.30;;;6.80;68.40;;;5.80;50.80;95188.16;6107584;23;20177;-89
2022/02/05 10:36:14;;;;;;;2.25;2.05;;;6.80;68.30;;;5.87;51.02;95193.53;6085549;23;20193;-90
2022/02/05 10:44:16;;;;;;;3.25;2.30;;;6.70;68.10;;;5.74;50.70;95183.56;6155232;23;20260;-88
2022/02/05 10:46:44;;;;;;;4.47;2.63;;;6.80;68.30;;;5.71;50.58;95192.50;6104808;23;20298;-91
2022/02/05 10:49:34;;;;;;;3.03;1.92;;;6.70;68.30;;;5.75;50.52;95182.59;6106084;23;20193;-86
2022/02/05 10:52:02;;;;;;;3.70;2.35;;;6.80;68.50;;;5.75;49.55;95195.63;6130147;23;20185;-89
2022/02/05 10:54:43;;;;;;;2.72;2.03;;;6.70;67.60;;;5.64;49.25;95175.88;6130665;23;20644;-90
2022/02/05 10:57:23;;;;;;;4.50;2.17;;;6.70;68.40;;;5.61;49.83;95182.22;6133886;23;20244;-89
2022/02/05 11:05:13;;;;;;;2.45;1.90;;;6.60;67.70;;;5.66;50.09;95192.13;6130376;23;20194;-89
2022/02/05 11:08:12;;;;;;;3.88;2.20;;;6.60;67.60;;;5.52;49.80;95195.31;6106868;23;20185;-89
2022/02/05 11:21:02;;;;;;;2.40;2.00;;;6.40;68.00;;;5.48;50.75;95207.00;6130176;23;20224;-88
2022/02/05 11:23:32;;;;;;;2.22;2.00;;;6.50;68.10;;;5.43;50.13;95190.06;6129933;23;20228;-88
2022/02/05 11:26:02;;;;;;;3.47;2.00;;;6.50;67.90;;;5.53;50.70;95213.38;6153720;23;20224;-87
2022/02/05 11:28:57;;;;;;;2.63;1.80;;;6.50;68.10;;;5.56;50.63;95212.25;6154531;23;20261;-90
2022/02/05 11:34:34;;;;;;;3.75;2.15;;;6.40;67.60;;;5.53;49.94;95222.94;6130544;23;20197;-90
2022/02/05 11:37:10;;;;;;;2.55;2.00;;;6.40;67.70;;;5.53;50.22;95226.38;6125935;23;20181;-90
2022/02/05 11:39:45;;;;;;;3.25;1.90;;;6.40;67.80;;;5.61;50.20;95218.66;6154382;23;20236;-91
2022/02/05 11:42:36;;;;;;;4.93;2.47;;;6.50;68.00;;;5.56;50.06;95209.66;6131080;23;20210;-90
2022/02/05 11:45:26;;;;;;;6.68;2.33;;;6.40;67.70;;;5.62;49.75;95216.84;6130906;23;20205;-89
2022/02/05 11:47:57;;;;;;;2.25;1.90;;;6.50;67.60;;;5.57;50.07;95217.28;6129031;23;20205;-88
2022/02/05 11:50:26;;;;;;;3.78;2.10;;;6.50;67.60;;;5.65;49.88;95215.72;6105768;23;20201;-89
2022/02/05 11:52:58;;;;;;;2.53;2.20;;;6.50;67.60;;;5.67;49.77;95224.19;6129750;23;20206;-88
2022/02/05 11:55:31;;;;;;;2.80;1.63;;;6.50;67.50;;;5.69;50.23;95220.47;6130897;23;20272;-87
2022/02/05 11:58:02;;;;;;;3.08;1.83;;;6.50;67.60;;;5.72;49.87;95227.94;6154711;23;20161;-89
2022/02/05 12:00:57;;;;;;;4.03;2.20;;;6.60;67.80;;;5.71;50.58;95215.94;6126966;23;20204;-87
2022/02/05 12:03:36;;;;;;;2.03;1.83;;;6.50;67.80;;;5.74;50.10;95215.63;6121377;23;20719;-90
2022/02/05 12:06:09;;;;;;;3.38;2.13;;;6.70;67.60;;;5.71;49.73;95226.34;6152831;23;20260;-87
2022/02/05 12:08:44;;;;;;;3.17;2.00;;;6.70;67.60;;;5.74;50.21;95212.22;6129137;23;20205;-88
2022/02/05 12:11:34;;;;;;;4.57;2.10;;;6.60;67.70;;;5.71;49.59;95215.94;6103099;23;20196;-87
2022/02/05 12:14:14;;;;;;;2.80;2.15;;;6.60;67.50;;;5.72;49.60;95221.94;6130124;23;20200;-88
2022/02/05 12:17:14;;;;;;;5.95;2.30;;;6.60;67.40;;;5.74;50.15;95220.00;6105707;23;20189;-87
2022/02/05 12:20:01;;;;;;;2.42;1.90;;;6.60;67.50;;;5.76;50.61;95215.44;6154112;23;20201;-89
2022/02/05 12:23:24;;;;;;;3.38;2.13;;;6.60;67.60;;;5.74;50.32;95205.19;6128519;23;20184;-89
2022/02/05 12:25:58;;;;;;;4.05;2.00;;;6.70;67.50;;;5.84;50.21;95217.31;6128703;23;20279;-89
2022/02/05 12:28:36;;;;;;;3.25;2.13;;;6.70;67.50;;;5.79;49.73;95209.94;6153363;23;20201;-88
2022/02/05 12:31:33;;;;;;;3.45;2.00;;;6.70;67.20;;;5.75;49.93;95212.03;6129240;23;20188;-89
2022/02/05 12:34:14;;;;;;;4.30;2.30;;;6.70;67.40;;;5.74;49.71;95196.59;6130036;23;20197;-90
2022/02/05 12:36:50;;;;;;;3.30;2.22;;;6.70;67.10;;;5.81;49.42;95238.41;6154358;23;20177;-89
2022/02/05 12:39:25;;;;;;;2.25;1.65;;;6.70;67.10;;;5.76;49.53;95211.06;6130522;23;20205;-87
2022/02/05 12:42:13;;;;;;;3.65;2.13;;;6.70;68.00;;;5.75;49.39;95219.03;6104877;23;20180;-88
2022/02/05 12:44:45;;;;;;;4.72;2.10;;;6.70;67.10;;;5.66;48.89;95197.34;6130728;23;20240;-87
2022/02/05 12:47:17;;;;;;;2.88;2.00;;;6.70;66.90;;;5.73;48.75;95211.38;6153873;23;20178;-88
2022/02/05 12:52:15;;;;;;;3.55;2.00;;;6.60;67.00;;;5.78;48.36;95205.72;6129833;23;20176;-89
2022/02/05 12:54:51;;;;;;;2.92;1.80;;;6.70;66.80;;;5.83;49.17;95210.47;6129552;23;20197;-88
2022/02/05 12:57:19;;;;;;;3.75;2.05;;;6.70;66.90;;;5.81;48.04;95204.59;6105410;23;20183;-89
2022/02/05 12:59:48;;;;;;;3.40;2.00;;;6.70;66.40;;;5.75;48.22;95198.22;6130665;23;20225;-90
2022/02/05 13:02:19;;;;;;;2.67;1.80;;;6.70;66.50;;;5.73;48.60;95198.34;6105339;23;20177;-90
2022/02/05 13:04:51;;;;;;;3.15;2.17;;;6.70;66.50;;;5.79;48.82;95206.53;6130383;23;20296;-87
2022/02/05 13:07:26;;;;;;;2.70;1.67;;;6.60;66.50;;;5.82;49.14;95207.03;6152946;23;20173;-89
2022/02/05 13:10:05;;;;;;;2.17;1.58;;;6.70;66.80;;;5.83;49.66;95193.03;6105592;23;20207;-91
2022/02/05 13:12:42;;;;;;;3.92;1.70;;;6.70;67.00;;;5.98;49.63;95193.28;6130712;23;20196;-96
2022/02/05 13:15:26;;;;;;;3.13;2.00;;;6.70;67.20;;;6.05;49.42;95189.13;6105062;23;20216;-89
2022/02/05 13:18:15;;;;;;;3.05;1.92;;;6.80;67.10;;;6.22;49.48;95200.38;6152412;23;20209;-90
2022/02/05 13:26:39;;;;;;;4.93;2.25;;;7.00;67.10;;;6.29;49.00;95187.56;6108397;23;20240;-89
2022/02/05 13:29:23;;;;;;;5.20;2.00;;;7.00;66.80;;;6.32;49.06;95199.47;6134116;23;20201;-89
2022/02/05 13:34:40;;;;;;;4.63;1.90;;;7.10;66.90;;;6.37;48.96;95203.22;6109388;23;20252;-89
2022/02/05 13:37:18;;;;;;;2.88;1.50;;;7.20;66.70;;;6.48;48.96;95206.50;6104685;23;20189;-89
2022/02/05 13:42:26;;;;;;;3.38;1.80;;;7.20;66.60;;;6.41;46.74;95217.56;6127852;23;20185;-88
2022/02/05 13:45:18;;;;;;;3.10;1.60;;;7.30;65.50;;;6.37;47.09;95215.41;6104692;23;20267;-88
2022/02/05 13:47:46;;;;;;;4.72;1.83;;;7.20;65.60;;;6.32;47.00;95218.50;6106502;23;20543;-90
2022/02/05 13:50:23;;;;;;;3.08;1.90;;;7.20;65.40;;;6.25;47.24;95217.53;6130869;23;20223;-89